sensor_id;sensor_type;location;lat;lon;timestamp;pressure;altitude;pressure_sealevel;temperature;humidity
68871;BME280;55906;52.278;6.808;2024-01-07T00:02:19;101708.03;;;2.96;95.25
68871;BME280;55906;52.278;6.808;2024-01-07T00:04:47;101706.81;;;2.91;94.81
68871;BME280;55906;52.278;6.808;2024-01-07T00:07:14;101711.97;;;3.03;95.33
68871;BME280;55906;52.278;6.808;2024-01-07T00:09:41;101726.28;;;3.09;95.29
68871;BME280;55906;52.278;6.808;2024-01-07T00:12:08;101724.97;;;3.03;95.45
68871;BME280;55906;52.278;6.808;2024-01-07T00:14:34;101724.59;;;2.85;94.91
68871;BME280;55906;52.278;6.808;2024-01-07T00:17:01;101711.66;;;2.98;95.39
68871;BME280;55906;52.278;6.808;2024-01-07T00:19:28;101719.03;;;2.92;95.13
68871;BME280;55906;52.278;6.808;2024-01-07T00:21:57;101728.19;;;2.87;95.19
68871;BME280;55906;52.278;6.808;2024-01-07T00:24:24;101725.81;;;2.90;95.51
68871;BME280;55906;52.278;6.808;2024-01-07T00:26:53;101722.19;;;2.88;94.75
68871;BME280;55906;52.278;6.808;2024-01-07T00:29:20;101729.56;;;2.82;94.68
68871;BME280;55906;52.278;6.808;2024-01-07T00:31:47;101733.19;;;2.84;95.59
68871;BME280;55906;52.278;6.808;2024-01-07T00:34:13;101738.31;;;2.71;95.33
68871;BME280;55906;52.278;6.808;2024-01-07T00:36:40;101744.03;;;2.78;94.63
68871;BME280;55906;52.278;6.808;2024-01-07T00:39:08;101752.28;;;2.73;94.66
68871;BME280;55906;52.278;6.808;2024-01-07T00:41:35;101749.38;;;2.68;95.47
68871;BME280;55906;52.278;6.808;2024-01-07T00:44:01;101747.31;;;2.76;95.07
68871;BME280;55906;52.278;6.808;2024-01-07T00:46:28;101748.78;;;2.72;95.27
68871;BME280;55906;52.278;6.808;2024-01-07T00:48:55;101755.31;;;2.79;94.98
68871;BME280;55906;52.278;6.808;2024-01-07T00:51:21;101746.28;;;2.85;95.21
68871;BME280;55906;52.278;6.808;2024-01-07T00:53:48;101754.72;;;2.95;94.75
68871;BME280;55906;52.278;6.808;2024-01-07T00:56:16;101753.22;;;2.98;95.04
68871;BME280;55906;52.278;6.808;2024-01-07T00:58:43;101756.88;;;2.88;94.93
68871;BME280;55906;52.278;6.808;2024-01-07T01:01:09;101762.75;;;2.86;94.88
68871;BME280;55906;52.278;6.808;2024-01-07T01:03:36;101763.13;;;2.79;94.67
68871;BME280;55906;52.278;6.808;2024-01-07T01:06:03;101765.50;;;2.76;94.64
68871;BME280;55906;52.278;6.808;2024-01-07T01:08:30;101766.75;;;2.69;95.49
68871;BME280;55906;52.278;6.808;2024-01-07T01:10:57;101778.72;;;2.79;94.70
68871;BME280;55906;52.278;6.808;2024-01-07T01:13:25;101780.84;;;2.84;94.79
68871;BME280;55906;52.278;6.808;2024-01-07T01:15:52;101771.94;;;2.81;94.99
68871;BME280;55906;52.278;6.808;2024-01-07T01:18:20;101775.09;;;2.77;95.36
68871;BME280;55906;52.278;6.808;2024-01-07T01:20:47;101780.16;;;2.87;95.06
68871;BME280;55906;52.278;6.808;2024-01-07T01:23:14;101784.22;;;2.83;95.49
68871;BME280;55906;52.278;6.808;2024-01-07T01:25:40;101785.03;;;2.82;94.38
68871;BME280;55906;52.278;6.808;2024-01-07T01:28:07;101787.19;;;2.76;94.32
68871;BME280;55906;52.278;6.808;2024-01-07T01:30:35;101794.75;;;2.85;94.51
68871;BME280;55906;52.278;6.808;2024-01-07T01:33:02;101791.69;;;2.79;93.85
68871;BME280;55906;52.278;6.808;2024-01-07T01:35:28;101793.84;;;2.84;93.57
68871;BME280;55906;52.278;6.808;2024-01-07T01:37:55;101797.69;;;2.78;93.23
68871;BME280;55906;52.278;6.808;2024-01-07T01:40:22;101800.16;;;2.88;94.12
68871;BME280;55906;52.278;6.808;2024-01-07T01:42:48;101798.69;;;2.92;93.83
68871;BME280;55906;52.278;6.808;2024-01-07T01:45:15;101800.16;;;2.88;93.61
68871;BME280;55906;52.278;6.808;2024-01-07T01:47:43;101814.72;;;2.86;92.61
68871;BME280;55906;52.278;6.808;2024-01-07T01:50:11;101812.47;;;2.79;92.39
68871;BME280;55906;52.278;6.808;2024-01-07T01:52:38;101811.81;;;2.81;92.73
68871;BME280;55906;52.278;6.808;2024-01-07T01:55:06;101816.09;;;2.81;92.73
68871;BME280;55906;52.278;6.808;2024-01-07T01:57:33;101815.00;;;2.66;92.39
68871;BME280;55906;52.278;6.808;2024-01-07T02:00:02;101833.28;;;2.67;92.19
68871;BME280;55906;52.278;6.808;2024-01-07T02:02:32;101827.63;;;2.61;92.45
68871;BME280;55906;52.278;6.808;2024-01-07T02:05:01;101823.47;;;2.63;92.19
68871;BME280;55906;52.278;6.808;2024-01-07T02:07:28;101820.19;;;2.66;91.42
68871;BME280;55906;52.278;6.808;2024-01-07T02:09:56;101841.53;;;2.62;92.00
68871;BME280;55906;52.278;6.808;2024-01-07T02:12:23;101833.97;;;2.65;91.52
68871;BME280;55906;52.278;6.808;2024-01-07T02:14:49;101838.81;;;2.72;91.22
68871;BME280;55906;52.278;6.808;2024-01-07T02:17:16;101839.38;;;2.68;90.71
68871;BME280;55906;52.278;6.808;2024-01-07T02:19:43;101849.31;;;2.62;90.52
68871;BME280;55906;52.278;6.808;2024-01-07T02:22:11;101851.31;;;2.54;91.17
68871;BME280;55906;52.278;6.808;2024-01-07T02:24:39;101849.97;;;2.59;90.21
68871;BME280;55906;52.278;6.808;2024-01-07T02:27:05;101856.22;;;2.61;90.72
68871;BME280;55906;52.278;6.808;2024-01-07T02:29:32;101851.25;;;2.64;91.33
68871;BME280;55906;52.278;6.808;2024-01-07T02:31:58;101857.66;;;2.69;90.81
68871;BME280;55906;52.278;6.808;2024-01-07T02:34:25;101861.97;;;2.69;90.43
68871;BME280;55906;52.278;6.808;2024-01-07T02:36:52;101860.16;;;2.68;90.68
68871;BME280;55906;52.278;6.808;2024-01-07T02:39:18;101864.00;;;2.73;90.73
68871;BME280;55906;52.278;6.808;2024-01-07T02:41:46;101868.03;;;2.57;91.10
68871;BME280;55906;52.278;6.808;2024-01-07T02:44:13;101862.28;;;2.50;90.69
68871;BME280;55906;52.278;6.808;2024-01-07T02:46:40;101876.19;;;2.62;90.26
68871;BME280;55906;52.278;6.808;2024-01-07T02:49:07;101878.13;;;2.65;90.01
68871;BME280;55906;52.278;6.808;2024-01-07T02:51:33;101876.38;;;2.53;90.17
68871;BME280;55906;52.278;6.808;2024-01-07T02:54:00;101880.91;;;2.56;90.51
68871;BME280;55906;52.278;6.808;2024-01-07T02:56:27;101893.78;;;2.43;89.41
68871;BME280;55906;52.278;6.808;2024-01-07T02:58:55;101885.41;;;2.58;90.10
68871;BME280;55906;52.278;6.808;2024-01-07T03:01:22;101884.50;;;2.46;89.89
68871;BME280;55906;52.278;6.808;2024-01-07T03:03:50;101881.25;;;2.49;89.28
68871;BME280;55906;52.278;6.808;2024-01-07T03:06:17;101891.41;;;2.57;89.21
68871;BME280;55906;52.278;6.808;2024-01-07T03:08:43;101888.34;;;2.51;89.03
68871;BME280;55906;52.278;6.808;2024-01-07T03:11:10;101890.94;;;2.51;89.21
68871;BME280;55906;52.278;6.808;2024-01-07T03:13:36;101893.56;;;2.51;88.86
68871;BME280;55906;52.278;6.808;2024-01-07T03:16:05;101903.72;;;2.48;89.23
68871;BME280;55906;52.278;6.808;2024-01-07T03:18:32;101897.38;;;2.33;88.76
68871;BME280;55906;52.278;6.808;2024-01-07T03:20:59;101906.63;;;2.41;88.93
68871;BME280;55906;52.278;6.808;2024-01-07T03:23:25;101908.44;;;2.42;88.76
68871;BME280;55906;52.278;6.808;2024-01-07T03:25:52;101916.78;;;2.38;88.43
68871;BME280;55906;52.278;6.808;2024-01-07T03:28:19;101910.13;;;2.30;88.98
68871;BME280;55906;52.278;6.808;2024-01-07T03:30:45;101915.19;;;2.29;88.98
68871;BME280;55906;52.278;6.808;2024-01-07T03:33:13;101917.22;;;2.21;88.77
68871;BME280;55906;52.278;6.808;2024-01-07T03:35:40;101915.75;;;2.24;87.99
68871;BME280;55906;52.278;6.808;2024-01-07T03:38:06;101918.59;;;2.28;88.97
68871;BME280;55906;52.278;6.808;2024-01-07T03:40:33;101917.78;;;2.29;88.38
68871;BME280;55906;52.278;6.808;2024-01-07T03:43:00;101925.25;;;2.36;89.56
68871;BME280;55906;52.278;6.808;2024-01-07T03:45:26;101928.88;;;2.38;89.17
68871;BME280;55906;52.278;6.808;2024-01-07T03:47:53;101930.00;;;2.41;88.40
68871;BME280;55906;52.278;6.808;2024-01-07T03:50:21;101933.84;;;2.35;88.58
68871;BME280;55906;52.278;6.808;2024-01-07T03:52:47;101940.00;;;2.25;87.86
68871;BME280;55906;52.278;6.808;2024-01-07T03:55:14;101933.22;;;2.15;88.34
68871;BME280;55906;52.278;6.808;2024-01-07T03:57:40;101930.19;;;2.21;88.88
68871;BME280;55906;52.278;6.808;2024-01-07T04:00:08;101930.97;;;2.20;88.99
68871;BME280;55906;52.278;6.808;2024-01-07T04:02:36;101935.59;;;2.12;88.95
68871;BME280;55906;52.278;6.808;2024-01-07T04:05:03;101937.50;;;2.15;89.40
68871;BME280;55906;52.278;6.808;2024-01-07T04:07:31;101950.25;;;2.12;88.88
68871;BME280;55906;52.278;6.808;2024-01-07T04:09:58;101949.94;;;2.19;88.97
68871;BME280;55906;52.278;6.808;2024-01-07T04:12:25;101949.91;;;2.07;89.26
68871;BME280;55906;52.278;6.808;2024-01-07T04:14:51;101947.97;;;2.05;88.70
68871;BME280;55906;52.278;6.808;2024-01-07T04:17:18;101947.41;;;2.09;88.94
68871;BME280;55906;52.278;6.808;2024-01-07T04:19:45;101960.72;;;2.02;88.24
68871;BME280;55906;52.278;6.808;2024-01-07T04:22:12;101961.13;;;1.96;88.88
68871;BME280;55906;52.278;6.808;2024-01-07T04:24:41;101959.19;;;2.15;88.64
68871;BME280;55906;52.278;6.808;2024-01-07T04:27:08;101970.41;;;2.04;88.74
68871;BME280;55906;52.278;6.808;2024-01-07T04:29:35;101963.00;;;2.09;89.03
68871;BME280;55906;52.278;6.808;2024-01-07T04:32:02;101963.91;;;2.09;88.26
68871;BME280;55906;52.278;6.808;2024-01-07T04:34:29;101968.66;;;2.15;89.34
68871;BME280;55906;52.278;6.808;2024-01-07T04:36:55;101969.09;;;2.09;89.55
68871;BME280;55906;52.278;6.808;2024-01-07T04:39:22;101967.41;;;2.10;88.65
68871;BME280;55906;52.278;6.808;2024-01-07T04:41:50;101971.41;;;1.95;89.02
68871;BME280;55906;52.278;6.808;2024-01-07T04:44:16;101972.53;;;1.98;89.11
68871;BME280;55906;52.278;6.808;2024-01-07T04:46:43;101984.91;;;1.90;88.54
68871;BME280;55906;52.278;6.808;2024-01-07T04:49:10;101983.88;;;1.88;88.99
68871;BME280;55906;52.278;6.808;2024-01-07T04:51:36;101989.78;;;1.98;88.99
68871;BME280;55906;52.278;6.808;2024-01-07T04:54:03;101985.56;;;2.10;89.00
68871;BME280;55906;52.278;6.808;2024-01-07T04:56:31;101989.19;;;2.12;88.72
68871;BME280;55906;52.278;6.808;2024-01-07T04:58:59;101998.06;;;2.04;88.37
68871;BME280;55906;52.278;6.808;2024-01-07T05:01:25;102010.38;;;2.06;87.66
68871;BME280;55906;52.278;6.808;2024-01-07T05:03:52;102001.56;;;2.04;87.32
68871;BME280;55906;52.278;6.808;2024-01-07T05:06:19;102007.66;;;2.05;88.04
68871;BME280;55906;52.278;6.808;2024-01-07T05:08:45;102000.72;;;1.93;87.63
68871;BME280;55906;52.278;6.808;2024-01-07T05:11:12;102004.28;;;2.06;87.28
68871;BME280;55906;52.278;6.808;2024-01-07T05:13:38;102021.22;;;1.90;87.23
68871;BME280;55906;52.278;6.808;2024-01-07T05:16:06;102024.06;;;1.93;86.50
68871;BME280;55906;52.278;6.808;2024-01-07T05:18:33;102031.00;;;2.05;87.60
68871;BME280;55906;52.278;6.808;2024-01-07T05:21:00;102027.88;;;2.09;87.65
68871;BME280;55906;52.278;6.808;2024-01-07T05:23:26;102029.91;;;1.91;86.41
68871;BME280;55906;52.278;6.808;2024-01-07T05:25:53;102040.13;;;2.00;87.32
68871;BME280;55906;52.278;6.808;2024-01-07T05:28:19;102030.72;;;1.90;86.76
68871;BME280;55906;52.278;6.808;2024-01-07T05:30:46;102045.56;;;2.03;86.16
68871;BME280;55906;52.278;6.808;2024-01-07T05:33:14;102043.00;;;1.92;86.50
68871;BME280;55906;52.278;6.808;2024-01-07T05:35:40;102054.97;;;1.90;87.19
68871;BME280;55906;52.278;6.808;2024-01-07T05:38:07;102048.13;;;1.81;87.38
68871;BME280;55906;52.278;6.808;2024-01-07T05:40:34;102052.19;;;1.99;86.32
68871;BME280;55906;52.278;6.808;2024-01-07T05:43:00;102050.69;;;1.91;86.94
68871;BME280;55906;52.278;6.808;2024-01-07T05:45:27;102061.97;;;1.91;86.66
68871;BME280;55906;52.278;6.808;2024-01-07T05:47:53;102057.84;;;1.83;86.82
68871;BME280;55906;52.278;6.808;2024-01-07T05:50:21;102072.56;;;1.95;87.04
68871;BME280;55906;52.278;6.808;2024-01-07T05:52:48;102068.06;;;1.92;86.42
68871;BME280;55906;52.278;6.808;2024-01-07T05:55:15;102077.47;;;2.02;86.88
68871;BME280;55906;52.278;6.808;2024-01-07T05:57:42;102084.88;;;1.97;85.79
68871;BME280;55906;52.278;6.808;2024-01-07T06:00:10;102082.41;;;1.99;86.93
68871;BME280;55906;52.278;6.808;2024-01-07T06:02:38;102089.19;;;1.97;86.71
68871;BME280;55906;52.278;6.808;2024-01-07T06:05:05;102083.25;;;1.87;86.40
68871;BME280;55906;52.278;6.808;2024-01-07T06:07:33;102098.03;;;1.88;85.48
68871;BME280;55906;52.278;6.808;2024-01-07T06:10:00;102099.97;;;1.91;85.91
68871;BME280;55906;52.278;6.808;2024-01-07T06:12:27;102099.22;;;1.82;86.00
68871;BME280;55906;52.278;6.808;2024-01-07T06:14:54;102108.03;;;1.84;86.27
68871;BME280;55906;52.278;6.808;2024-01-07T06:17:20;102115.88;;;1.74;86.98
68871;BME280;55906;52.278;6.808;2024-01-07T06:19:47;102120.88;;;1.82;86.48
68871;BME280;55906;52.278;6.808;2024-01-07T06:22:14;102133.19;;;1.85;86.80
68871;BME280;55906;52.278;6.808;2024-01-07T06:24:42;102139.59;;;1.78;87.13
68871;BME280;55906;52.278;6.808;2024-01-07T06:27:08;102144.47;;;1.85;87.30
68871;BME280;55906;52.278;6.808;2024-01-07T06:29:35;102137.47;;;1.84;86.85
68871;BME280;55906;52.278;6.808;2024-01-07T06:32:01;102140.19;;;1.86;87.82
68871;BME280;55906;52.278;6.808;2024-01-07T06:34:28;102147.25;;;1.77;88.02
68871;BME280;55906;52.278;6.808;2024-01-07T06:36:55;102158.25;;;1.84;87.54
68871;BME280;55906;52.278;6.808;2024-01-07T06:39:21;102159.19;;;1.75;88.24
68871;BME280;55906;52.278;6.808;2024-01-07T06:41:48;102159.16;;;1.85;87.41
68871;BME280;55906;52.278;6.808;2024-01-07T06:44:15;102165.41;;;1.77;87.80
68871;BME280;55906;52.278;6.808;2024-01-07T06:46:42;102159.19;;;1.65;88.33
68871;BME280;55906;52.278;6.808;2024-01-07T06:49:08;102171.38;;;1.76;88.03
68871;BME280;55906;52.278;6.808;2024-01-07T06:51:35;102171.00;;;1.61;88.06
68871;BME280;55906;52.278;6.808;2024-01-07T06:54:02;102181.41;;;1.51;88.25
68871;BME280;55906;52.278;6.808;2024-01-07T06:56:27;102178.44;;;1.46;88.06
68871;BME280;55906;52.278;6.808;2024-01-07T06:58:55;102186.22;;;1.46;88.94
68871;BME280;55906;52.278;6.808;2024-01-07T07:01:22;102195.78;;;1.57;88.70
68871;BME280;55906;52.278;6.808;2024-01-07T07:03:49;102198.53;;;1.49;89.88
68871;BME280;55906;52.278;6.808;2024-01-07T07:06:16;102205.41;;;1.48;89.59
68871;BME280;55906;52.278;6.808;2024-01-07T07:08:42;102208.13;;;1.50;89.62
68871;BME280;55906;52.278;6.808;2024-01-07T07:11:09;102209.00;;;1.60;88.67
68871;BME280;55906;52.278;6.808;2024-01-07T07:13:36;102213.03;;;1.57;88.60
68871;BME280;55906;52.278;6.808;2024-01-07T07:16:06;102213.28;;;1.50;88.53
68871;BME280;55906;52.278;6.808;2024-01-07T07:18:32;102223.78;;;1.51;89.07
68871;BME280;55906;52.278;6.808;2024-01-07T07:20:59;102219.00;;;1.46;88.39
68871;BME280;55906;52.278;6.808;2024-01-07T07:23:26;102224.06;;;1.54;88.60
68871;BME280;55906;52.278;6.808;2024-01-07T07:25:53;102229.88;;;1.52;88.53
68871;BME280;55906;52.278;6.808;2024-01-07T07:28:19;102235.84;;;1.41;87.04
68871;BME280;55906;52.278;6.808;2024-01-07T07:30:46;102233.25;;;1.41;86.81
68871;BME280;55906;52.278;6.808;2024-01-07T07:33:14;102241.44;;;1.35;86.81
68871;BME280;55906;52.278;6.808;2024-01-07T07:35:40;102248.94;;;1.42;85.88
68871;BME280;55906;52.278;6.808;2024-01-07T07:38:07;102258.81;;;1.46;86.05
68871;BME280;55906;52.278;6.808;2024-01-07T07:40:34;102263.84;;;1.45;85.71
68871;BME280;55906;52.278;6.808;2024-01-07T07:43:01;102266.56;;;1.46;86.02
68871;BME280;55906;52.278;6.808;2024-01-07T07:45:27;102262.16;;;1.45;85.86
68871;BME280;55906;52.278;6.808;2024-01-07T07:47:54;102270.59;;;1.33;85.35
68871;BME280;55906;52.278;6.808;2024-01-07T07:50:22;102258.16;;;1.39;85.61
68871;BME280;55906;52.278;6.808;2024-01-07T07:52:49;102277.06;;;1.38;85.75
68871;BME280;55906;52.278;6.808;2024-01-07T07:55:16;102265.81;;;1.47;85.30
68871;BME280;55906;52.278;6.808;2024-01-07T07:57:43;102278.25;;;1.41;85.50
68871;BME280;55906;52.278;6.808;2024-01-07T08:00:11;102288.63;;;1.51;84.95
68871;BME280;55906;52.278;6.808;2024-01-07T08:02:39;102286.41;;;1.46;85.05
68871;BME280;55906;52.278;6.808;2024-01-07T08:05:06;102289.00;;;1.36;85.15
68871;BME280;55906;52.278;6.808;2024-01-07T08:07:34;102288.75;;;1.53;84.74
68871;BME280;55906;52.278;6.808;2024-01-07T08:10:01;102299.50;;;1.47;84.36
68871;BME280;55906;52.278;6.808;2024-01-07T08:12:27;102289.91;;;1.56;84.46
68871;BME280;55906;52.278;6.808;2024-01-07T08:14:54;102295.75;;;1.54;84.78
68871;BME280;55906;52.278;6.808;2024-01-07T08:17:21;102310.25;;;1.42;83.99
68871;BME280;55906;52.278;6.808;2024-01-07T08:19:47;102308.06;;;1.46;84.45
68871;BME280;55906;52.278;6.808;2024-01-07T08:22:14;102305.97;;;1.42;84.22
68871;BME280;55906;52.278;6.808;2024-01-07T08:24:42;102313.38;;;1.48;83.09
68871;BME280;55906;52.278;6.808;2024-01-07T08:27:09;102310.00;;;1.39;82.97
68871;BME280;55906;52.278;6.808;2024-01-07T08:29:35;102315.72;;;1.45;84.58
68871;BME280;55906;52.278;6.808;2024-01-07T08:32:02;102331.25;;;1.45;83.88
68871;BME280;55906;52.278;6.808;2024-01-07T08:34:28;102327.50;;;1.41;83.26
68871;BME280;55906;52.278;6.808;2024-01-07T08:36:55;102326.22;;;1.46;83.45
68871;BME280;55906;52.278;6.808;2024-01-07T08:39:22;102336.84;;;1.59;82.52
68871;BME280;55906;52.278;6.808;2024-01-07T08:41:50;102333.72;;;1.64;83.01
68871;BME280;55906;52.278;6.808;2024-01-07T08:44:17;102340.88;;;1.66;82.88
68871;BME280;55906;52.278;6.808;2024-01-07T08:46:44;102346.44;;;1.71;81.70
68871;BME280;55906;52.278;6.808;2024-01-07T08:49:10;102352.81;;;1.74;83.10
68871;BME280;55906;52.278;6.808;2024-01-07T08:51:39;102350.19;;;1.64;82.93
68871;BME280;55906;52.278;6.808;2024-01-07T08:54:05;102362.41;;;1.75;81.94
68871;BME280;55906;52.278;6.808;2024-01-07T08:56:32;102365.50;;;1.61;81.20
68871;BME280;55906;52.278;6.808;2024-01-07T08:59:00;102367.06;;;1.59;81.06
68871;BME280;55906;52.278;6.808;2024-01-07T09:01:26;102375.09;;;1.62;79.84
68871;BME280;55906;52.278;6.808;2024-01-07T09:03:53;102376.53;;;1.58;79.04
68871;BME280;55906;52.278;6.808;2024-01-07T09:06:20;102382.22;;;1.65;78.84
68871;BME280;55906;52.278;6.808;2024-01-07T09:08:46;102378.34;;;1.70;78.68
68871;BME280;55906;52.278;6.808;2024-01-07T09:11:13;102396.66;;;2.02;79.10
68871;BME280;55906;52.278;6.808;2024-01-07T09:13:39;102404.94;;;1.98;77.97
68871;BME280;55906;52.278;6.808;2024-01-07T09:16:07;102403.66;;;2.03;77.41
68871;BME280;55906;52.278;6.808;2024-01-07T09:18:36;102397.25;;;2.40;77.07
68871;BME280;55906;52.278;6.808;2024-01-07T09:21:03;102396.69;;;2.54;77.34
68871;BME280;55906;52.278;6.808;2024-01-07T09:23:31;102409.69;;;2.54;75.48
68871;BME280;55906;52.278;6.808;2024-01-07T09:25:59;102410.34;;;2.62;75.71
68871;BME280;55906;52.278;6.808;2024-01-07T09:28:25;102410.19;;;2.70;76.26
68871;BME280;55906;52.278;6.808;2024-01-07T09:30:52;102425.66;;;2.69;74.17
68871;BME280;55906;52.278;6.808;2024-01-07T09:33:20;102430.44;;;2.84;75.55
68871;BME280;55906;52.278;6.808;2024-01-07T09:35:48;102428.19;;;3.21;73.93
68871;BME280;55906;52.278;6.808;2024-01-07T09:38:15;102432.41;;;3.09;73.18
68871;BME280;55906;52.278;6.808;2024-01-07T09:40:42;102426.66;;;3.67;73.39
68871;BME280;55906;52.278;6.808;2024-01-07T09:43:08;102431.84;;;4.22;69.86
68871;BME280;55906;52.278;6.808;2024-01-07T09:45:36;102433.25;;;4.40;69.65
68871;BME280;55906;52.278;6.808;2024-01-07T09:48:05;102423.88;;;5.01;66.71
68871;BME280;55906;52.278;6.808;2024-01-07T09:50:33;102427.53;;;5.51;67.70
68871;BME280;55906;52.278;6.808;2024-01-07T09:53:01;102427.56;;;5.39;62.48
68871;BME280;55906;52.278;6.808;2024-01-07T09:55:33;102437.41;;;5.92;63.43
68871;BME280;55906;52.278;6.808;2024-01-07T09:58:00;102419.66;;;6.37;63.35
68871;BME280;55906;52.278;6.808;2024-01-07T10:00:27;102430.91;;;6.74;64.36
68871;BME280;55906;52.278;6.808;2024-01-07T10:02:54;102446.06;;;5.91;58.91
68871;BME280;55906;52.278;6.808;2024-01-07T10:05:21;102436.41;;;5.90;59.10
68871;BME280;55906;52.278;6.808;2024-01-07T10:07:49;102447.31;;;6.34;59.11
68871;BME280;55906;52.278;6.808;2024-01-07T10:10:17;102452.59;;;5.97;59.63
68871;BME280;55906;52.278;6.808;2024-01-07T10:12:44;102454.91;;;5.93;56.65
68871;BME280;55906;52.278;6.808;2024-01-07T10:15:11;102451.91;;;6.25;56.61
68871;BME280;55906;52.278;6.808;2024-01-07T10:17:38;102452.09;;;6.53;56.57
68871;BME280;55906;52.278;6.808;2024-01-07T10:20:06;102459.31;;;6.19;56.14
68871;BME280;55906;52.278;6.808;2024-01-07T10:22:35;102469.94;;;6.71;53.21
68871;BME280;55906;52.278;6.808;2024-01-07T10:25:04;102470.16;;;7.14;51.45
68871;BME280;55906;52.278;6.808;2024-01-07T10:27:33;102460.38;;;6.72;54.97
68871;BME280;55906;52.278;6.808;2024-01-07T10:30:01;102464.69;;;6.58;52.55
68871;BME280;55906;52.278;6.808;2024-01-07T10:32:28;102462.31;;;6.50;54.75
68871;BME280;55906;52.278;6.808;2024-01-07T10:35:01;102458.97;;;6.39;55.50
68871;BME280;55906;52.278;6.808;2024-01-07T10:37:28;102466.31;;;6.69;53.78
68871;BME280;55906;52.278;6.808;2024-01-07T10:39:57;102477.19;;;7.02;52.06
68871;BME280;55906;52.278;6.808;2024-01-07T10:42:27;102468.63;;;7.31;51.25
68871;BME280;55906;52.278;6.808;2024-01-07T10:44:56;102465.13;;;7.85;49.13
68871;BME280;55906;52.278;6.808;2024-01-07T10:47:23;102460.41;;;8.50;49.21
68871;BME280;55906;52.278;6.808;2024-01-07T10:49:53;102457.97;;;8.68;46.65
68871;BME280;55906;52.278;6.808;2024-01-07T10:52:21;102471.25;;;9.00;47.90
68871;BME280;55906;52.278;6.808;2024-01-07T10:54:49;102462.69;;;9.34;47.44
68871;BME280;55906;52.278;6.808;2024-01-07T10:57:21;102464.50;;;9.82;46.93
68871;BME280;55906;52.278;6.808;2024-01-07T10:59:52;102466.81;;;9.92;45.16
68871;BME280;55906;52.278;6.808;2024-01-07T11:02:21;102470.69;;;9.82;46.27
68871;BME280;55906;52.278;6.808;2024-01-07T11:04:54;102478.91;;;9.88;45.43
68871;BME280;55906;52.278;6.808;2024-01-07T11:07:28;102477.50;;;10.11;44.88
68871;BME280;55906;52.278;6.808;2024-01-07T11:10:07;102479.56;;;9.22;47.29
68871;BME280;55906;52.278;6.808;2024-01-07T11:12:35;102492.78;;;8.50;46.63
68871;BME280;55906;52.278;6.808;2024-01-07T11:15:03;102488.59;;;8.11;47.16
68871;BME280;55906;52.278;6.808;2024-01-07T11:17:41;102498.00;;;7.53;47.46
68871;BME280;55906;52.278;6.808;2024-01-07T11:20:16;102501.44;;;7.39;49.42
68871;BME280;55906;52.278;6.808;2024-01-07T11:22:44;102502.47;;;7.01;50.20
68871;BME280;55906;52.278;6.808;2024-01-07T11:25:31;102499.13;;;7.30;48.79
68871;BME280;55906;52.278;6.808;2024-01-07T11:27:58;102511.13;;;7.14;50.70
68871;BME280;55906;52.278;6.808;2024-01-07T11:30:28;102502.47;;;7.28;49.45
68871;BME280;55906;52.278;6.808;2024-01-07T11:32:58;102503.47;;;7.97;47.44
68871;BME280;55906;52.278;6.808;2024-01-07T11:35:56;102504.66;;;9.17;45.29
68871;BME280;55906;52.278;6.808;2024-01-07T11:38:23;102501.16;;;9.48;45.26
68871;BME280;55906;52.278;6.808;2024-01-07T11:40:50;102508.09;;;9.31;44.61
68871;BME280;55906;52.278;6.808;2024-01-07T11:43:17;102501.38;;;9.07;45.58
68871;BME280;55906;52.278;6.808;2024-01-07T11:45:45;102509.00;;;8.73;48.20
68871;BME280;55906;52.278;6.808;2024-01-07T11:48:12;102503.63;;;8.14;48.85
68871;BME280;55906;52.278;6.808;2024-01-07T11:50:39;102515.00;;;7.73;49.46
68871;BME280;55906;52.278;6.808;2024-01-07T11:53:06;102519.56;;;6.96;50.78
68871;BME280;55906;52.278;6.808;2024-01-07T11:55:33;102520.16;;;6.29;50.91
68871;BME280;55906;52.278;6.808;2024-01-07T11:58:02;102513.34;;;6.31;52.46
68871;BME280;55906;52.278;6.808;2024-01-07T12:00:31;102523.88;;;6.08;51.95
68871;BME280;55906;52.278;6.808;2024-01-07T12:02:59;102518.28;;;5.90;52.51
68871;BME280;55906;52.278;6.808;2024-01-07T12:05:26;102519.69;;;5.50;53.62
68871;BME280;55906;52.278;6.808;2024-01-07T12:07:53;102520.59;;;5.15;54.31
68871;BME280;55906;52.278;6.808;2024-01-07T12:10:20;102519.91;;;5.06;54.77
68871;BME280;55906;52.278;6.808;2024-01-07T12:12:47;102521.50;;;5.16;55.97
68871;BME280;55906;52.278;6.808;2024-01-07T12:15:14;102519.88;;;4.71;56.48
68871;BME280;55906;52.278;6.808;2024-01-07T12:17:41;102521.94;;;5.10;56.15
68871;BME280;55906;52.278;6.808;2024-01-07T12:20:10;102525.78;;;4.92;56.43
68871;BME280;55906;52.278;6.808;2024-01-07T12:22:37;102531.41;;;4.63;57.48
68871;BME280;55906;52.278;6.808;2024-01-07T12:25:05;102524.13;;;4.47;57.62
68871;BME280;55906;52.278;6.808;2024-01-07T12:27:33;102521.97;;;4.20;57.84
68871;BME280;55906;52.278;6.808;2024-01-07T12:30:01;102523.09;;;4.12;58.14
68871;BME280;55906;52.278;6.808;2024-01-07T12:32:27;102526.03;;;4.16;58.57
68871;BME280;55906;52.278;6.808;2024-01-07T12:34:57;102529.28;;;4.36;58.47
68871;BME280;55906;52.278;6.808;2024-01-07T12:37:25;102523.31;;;4.15;58.83
68871;BME280;55906;52.278;6.808;2024-01-07T12:39:52;102531.00;;;4.13;59.47
68871;BME280;55906;52.278;6.808;2024-01-07T12:42:19;102518.72;;;4.01;59.13
68871;BME280;55906;52.278;6.808;2024-01-07T12:44:47;102530.34;;;4.16;59.19
68871;BME280;55906;52.278;6.808;2024-01-07T12:47:14;102536.16;;;4.02;58.96
68871;BME280;55906;52.278;6.808;2024-01-07T12:49:41;102530.53;;;4.07;60.04
68871;BME280;55906;52.278;6.808;2024-01-07T12:52:08;102529.00;;;4.21;59.54
68871;BME280;55906;52.278;6.808;2024-01-07T12:54:37;102531.31;;;4.28;59.67
68871;BME280;55906;52.278;6.808;2024-01-07T12:57:04;102531.81;;;4.46;59.23
68871;BME280;55906;52.278;6.808;2024-01-07T12:59:31;102540.13;;;4.64;59.64
68871;BME280;55906;52.278;6.808;2024-01-07T13:01:58;102535.75;;;4.41;59.18